createdAt,value
2022-09-27T00:02:01.863Z,99805.53
2022-09-27T00:04:31.352Z,99794.13
2022-09-27T00:06:59.359Z,99798.34
2022-09-27T00:09:27.432Z,99793.94
2022-09-27T00:11:55.514Z,99794.81
2022-09-27T00:14:23.529Z,99793.25
2022-09-27T00:16:51.640Z,99793.25
2022-09-27T00:19:22.669Z,99784.66
2022-09-27T00:21:52.172Z,99791.03
2022-09-27T00:24:22.141Z,99792.69
2022-09-27T00:26:50.917Z,99788.63
2022-09-27T00:29:20.310Z,99800.22
2022-09-27T00:31:48.544Z,99794.97
2022-09-27T00:34:20.673Z,99802.06
2022-09-27T00:36:49.377Z,99796.97
2022-09-27T00:39:19.448Z,99804.06
2022-09-27T00:41:47.844Z,99795.28
2022-09-27T00:45:04.948Z,99804.19
2022-09-27T00:47:38.837Z,99809.00
2022-09-27T00:50:12.583Z,99811.66
2022-09-27T00:52:46.844Z,99810.00
2022-09-27T00:55:18.989Z,99809.16
2022-09-27T00:57:49.299Z,99788.00
2022-09-27T01:00:18.159Z,99809.84
2022-09-27T01:02:50.530Z,99823.13
2022-09-27T01:05:22.281Z,99810.28
2022-09-27T01:07:50.352Z,99816.75
2022-09-27T01:10:22.858Z,99822.84
2022-09-27T01:13:00.581Z,99828.22
2022-09-27T01:15:37.992Z,99833.56
2022-09-27T01:18:19.576Z,99828.91
2022-09-27T01:21:20.010Z,99823.81
2022-09-27T01:24:21.979Z,99825.66
2022-09-27T01:27:17.395Z,99823.81
2022-09-27T01:30:00.456Z,99823.81
2022-09-27T01:32:35.961Z,99820.28
2022-09-27T01:35:08.501Z,99820.28
2022-09-27T01:37:52.654Z,99791.38
2022-09-27T01:40:30.548Z,99813.38
2022-09-27T01:43:25.305Z,99811.25
2022-09-27T01:45:57.969Z,99820.84
2022-09-27T01:49:03.541Z,99821.84
2022-09-27T01:51:37.396Z,99830.56
2022-09-27T01:54:07.565Z,99830.56
2022-09-27T01:57:02.477Z,99825.22
2022-09-27T01:59:41.649Z,99827.75
2022-09-27T02:02:37.881Z,99826.91
2022-09-27T02:05:31.985Z,99841.19
2022-09-27T02:08:15.195Z,99833.13
2022-09-27T02:10:46.794Z,99843.00
2022-09-27T02:13:22.507Z,99830.31
2022-09-27T02:16:02.791Z,99843.00
2022-09-27T02:18:51.298Z,99841.19
2022-09-27T02:21:25.253Z,99835.81
2022-09-27T02:23:58.389Z,99838.63
2022-09-27T02:26:33.652Z,99839.63
2022-09-27T02:29:08.508Z,99846.84
2022-09-27T02:31:44.716Z,99840.06
2022-09-27T02:34:17.489Z,99840.78
2022-09-27T02:36:47.034Z,99846.28
2022-09-27T02:39:15.635Z,99844.59
2022-09-27T02:41:44.011Z,99851.81
2022-09-27T02:44:14.845Z,99855.34
2022-09-27T02:47:18.582Z,99844.88
2022-09-27T02:50:01.151Z,99849.25
2022-09-27T02:53:08.972Z,99845.88
2022-09-27T02:55:53.529Z,99844.72
2022-09-27T02:59:08.856Z,99843.88
2022-09-27T03:02:14.379Z,99843.06
2022-09-27T03:05:02.604Z,99850.25
2022-09-27T03:07:31.447Z,99844.03
2022-09-27T03:10:01.053Z,99839.38
2022-09-27T03:12:29.358Z,99839.22
2022-09-27T03:14:59.732Z,99847.97
2022-09-27T03:17:50.636Z,99843.75
2022-09-27T03:20:27.738Z,99847.28
2022-09-27T03:23:05.755Z,99854.31
2022-09-27T03:25:35.153Z,99847.00
2022-09-27T03:28:03.491Z,99845.28
2022-09-27T03:30:31.923Z,99850.50
2022-09-27T03:33:00.093Z,99839.94
2022-09-27T03:35:46.294Z,99848.66
2022-09-27T03:38:15.165Z,99847.69
2022-09-27T03:40:44.717Z,99854.72
2022-09-27T03:43:13.096Z,99840.78
2022-09-27T03:45:41.427Z,99843.88
2022-09-27T03:48:12.531Z,99849.06
2022-09-27T03:50:40.592Z,99853.47
2022-09-27T03:53:08.861Z,99853.31
2022-09-27T03:55:36.973Z,99852.31
2022-09-27T03:58:06.562Z,99858.38
2022-09-27T04:00:37.209Z,99863.75
2022-09-27T04:03:05.441Z,99858.38
2022-09-27T04:05:53.740Z,99852.03
2022-09-27T04:08:28.064Z,99856.56
2022-09-27T04:10:56.101Z,99852.88
2022-09-27T04:13:25.601Z,99859.94
2022-09-27T04:15:56.334Z,99858.25
2022-09-27T04:18:50.776Z,99864.59
2022-09-27T04:21:50.890Z,99854.00
2022-09-27T04:24:19.509Z,99856.69
2022-09-27T04:27:07.497Z,99861.22
2022-09-27T04:29:45.626Z,99857.53
2022-09-27T04:32:33.629Z,99856.84
2022-09-27T04:35:37.689Z,99859.53
2022-09-27T04:38:06.078Z,99856.72
2022-09-27T04:40:36.103Z,99869.56
2022-09-27T04:43:05.215Z,99875.63
2022-09-27T04:45:34.661Z,99866.88
2022-09-27T04:48:03.253Z,99873.94
2022-09-27T04:50:35.826Z,99867.88
2022-09-27T04:53:06.007Z,99866.88
2022-09-27T04:55:34.500Z,99870.44
2022-09-27T04:58:02.753Z,99877.34
2022-09-27T05:00:31.957Z,99875.47
2022-09-27T05:03:17.322Z,99881.69
2022-09-27T05:05:56.903Z,99881.69
2022-09-27T05:08:25.352Z,99873.94
2022-09-27T05:11:13.828Z,99881.16
2022-09-27T05:13:44.973Z,99884.53
2022-09-27T05:16:13.121Z,99886.22
2022-09-27T05:19:20.967Z,99885.53
2022-09-27T05:22:08.890Z,99893.56
2022-09-27T05:24:38.382Z,99883.69
2022-09-27T05:27:08.245Z,99895.28
2022-09-27T05:29:36.824Z,99889.34
2022-09-27T05:32:16.086Z,99881.44
2022-09-27T05:34:46.920Z,99894.16
2022-09-27T05:37:15.133Z,99890.47
2022-09-27T05:39:43.672Z,99890.47
2022-09-27T05:42:14.111Z,99886.78
2022-09-27T05:44:47.104Z,99897.53
2022-09-27T05:47:16.081Z,99886.78
2022-09-27T05:49:44.113Z,99892.03
2022-09-27T05:52:16.799Z,99893.69
2022-09-27T05:54:47.313Z,99895.53
2022-09-27T05:57:16.890Z,99889.34
2022-09-27T05:59:47.897Z,99888.47
2022-09-27T06:02:22.128Z,99894.84
2022-09-27T06:05:09.269Z,99889.91
2022-09-27T06:07:44.521Z,99892.31
2022-09-27T06:10:21.236Z,99903.91
2022-09-27T06:12:50.318Z,99897.69
2022-09-27T06:15:29.949Z,99904.88
2022-09-27T06:17:58.962Z,99898.53
2022-09-27T06:20:27.092Z,99905.56
2022-09-27T06:22:56.629Z,99904.59
2022-09-27T06:25:24.653Z,99908.94
2022-09-27T06:28:13.013Z,99918.03
2022-09-27T06:30:44.248Z,99923.22
2022-09-27T06:33:23.905Z,99917.00
2022-09-27T06:35:53.877Z,99919.69
2022-09-27T06:38:24.954Z,99917.00
2022-09-27T06:41:07.742Z,99926.94
2022-09-27T06:43:53.379Z,99928.59
2022-09-27T06:46:40.038Z,99925.22
2022-09-27T06:49:29.081Z,99925.06
2022-09-27T06:51:58.487Z,99942.88
2022-09-27T06:54:27.888Z,99931.16
2022-09-27T06:56:59.034Z,99935.53
2022-09-27T06:59:47.468Z,99936.38
2022-09-27T07:02:34.143Z,99938.06
2022-09-27T07:05:31.181Z,99942.44
2022-09-27T07:08:26.494Z,99940.44
2022-09-27T07:10:57.013Z,99942.84
2022-09-27T07:13:26.637Z,99948.13
2022-09-27T07:15:54.802Z,99947.09
2022-09-27T07:18:22.898Z,99943.16
2022-09-27T07:20:51.237Z,99948.38
2022-09-27T07:23:19.305Z,99956.13
2022-09-27T07:25:48.494Z,99948.94
2022-09-27T07:28:21.973Z,99945.22
2022-09-27T07:30:55.471Z,99946.78
2022-09-27T07:33:24.274Z,99951.47
2022-09-27T07:35:52.392Z,99955.69
2022-09-27T07:38:21.250Z,99957.22
2022-09-27T07:40:49.476Z,99967.16
2022-09-27T07:43:19.624Z,99959.78
2022-09-27T07:45:48.369Z,99968.84
2022-09-27T07:48:30.133Z,99978.59
2022-09-27T07:51:12.114Z,99970.53
2022-09-27T07:53:52.239Z,99969.69
2022-09-27T07:56:58.388Z,99961.63
2022-09-27T07:59:27.866Z,99962.19
2022-09-27T08:01:56.860Z,99968.38
2022-09-27T08:04:24.908Z,99968.38
2022-09-27T08:06:53.154Z,99970.94
2022-09-27T08:09:21.354Z,99973.63
2022-09-27T08:11:49.921Z,99981.53
2022-09-27T08:14:18.725Z,99983.06
2022-09-27T08:16:51.126Z,99986.31
2022-09-27T08:19:28.184Z,99991.53
2022-09-27T08:22:21.253Z,99984.50
2022-09-27T08:24:58.024Z,99992.25
2022-09-27T08:27:40.953Z,99984.03
2022-09-27T08:30:33.077Z,99982.91
2022-09-27T08:33:03.951Z,99978.22
2022-09-27T08:35:34.157Z,99962.72
2022-09-27T08:38:05.931Z,99969.00
2022-09-27T08:40:47.734Z,99974.09
2022-09-27T08:43:23.812Z,99985.53
2022-09-27T08:46:06.572Z,99989.09
2022-09-27T08:48:39.194Z,99970.72
2022-09-27T08:51:12.030Z,99973.66
2022-09-27T08:53:44.560Z,99972.66
2022-09-27T08:56:14.479Z,99952.19
2022-09-27T08:58:53.007Z,99983.13
2022-09-27T09:01:29.051Z,99979.59
2022-09-27T09:04:09.781Z,99952.50
2022-09-27T09:06:44.206Z,99980.16
2022-09-27T09:09:28.088Z,99989.03
2022-09-27T09:12:37.392Z,99927.56
2022-09-27T09:15:16.895Z,99996.97
2022-09-27T09:18:02.221Z,99994.13
2022-09-27T09:20:59.759Z,99999.66
2022-09-27T09:23:53.970Z,100003.03
2022-09-27T09:26:31.804Z,99997.66
2022-09-27T09:29:11.276Z,99999.34
2022-09-27T09:31:43.990Z,100002.06
2022-09-27T09:34:18.789Z,99994.84
2022-09-27T09:36:56.725Z,100000.06
2022-09-27T09:39:28.166Z,100001.03
2022-09-27T09:42:08.017Z,99994.66
2022-09-27T09:44:46.838Z,99995.53
2022-09-27T09:47:26.062Z,99993.69
2022-09-27T09:49:58.238Z,99992.69
2022-09-27T09:52:37.805Z,99980.38
2022-09-27T09:55:16.198Z,99983.34
2022-09-27T09:57:54.206Z,99990.16
2022-09-27T10:00:25.990Z,99993.13
2022-09-27T10:02:56.797Z,100003.72
2022-09-27T10:05:27.069Z,100003.72
2022-09-27T10:08:09.093Z,100017.16
2022-09-27T10:10:37.965Z,100001.19
2022-09-27T10:13:16.609Z,99995.53
2022-09-27T10:15:54.895Z,100010.81
2022-09-27T10:18:23.371Z,100002.75
2022-09-27T10:20:57.321Z,100000.75
2022-09-27T10:23:26.847Z,100003.44
2022-09-27T10:26:21.649Z,100006.13
2022-09-27T10:28:52.300Z,100004.28
2022-09-27T10:31:37.174Z,100008.69
2022-09-27T10:34:20.160Z,100006.97
2022-09-27T10:37:08.537Z,100013.19
2022-09-27T10:39:42.933Z,100000.75
2022-09-27T10:42:33.756Z,99999.06
2022-09-27T10:45:26.817Z,99999.19
2022-09-27T10:48:00.422Z,100006.41
2022-09-27T10:50:59.892Z,99996.50
2022-09-27T10:53:58.748Z,100000.34
2022-09-27T10:56:35.115Z,99993.28
2022-09-27T10:59:05.494Z,100002.91
2022-09-27T11:01:42.079Z,99995.66
2022-09-27T11:04:22.333Z,100000.22
2022-09-27T11:06:50.620Z,100002.75
2022-09-27T11:09:24.310Z,100002.44
2022-09-27T11:12:08.762Z,100005.81
2022-09-27T11:14:37.137Z,100005.81
2022-09-27T11:17:14.412Z,99993.94
2022-09-27T11:20:08.792Z,100001.00
2022-09-27T11:23:00.055Z,99993.06
2022-09-27T11:25:39.845Z,99996.78
2022-09-27T11:28:28.671Z,99996.78
2022-09-27T11:31:08.802Z,100004.00
2022-09-27T11:34:13.865Z,100002.28
2022-09-27T11:36:55.952Z,99995.06
2022-09-27T11:39:33.816Z,99992.22
2022-09-27T11:42:32.250Z,99995.75
2022-09-27T11:45:37.055Z,99998.59
2022-09-27T11:48:20.190Z,99994.22
2022-09-27T11:51:02.415Z,99995.06
2022-09-27T11:53:51.625Z,99989.69
2022-09-27T11:56:31.625Z,99995.94
2022-09-27T11:59:30.546Z,99981.34
2022-09-27T12:02:17.411Z,99977.78
2022-09-27T12:05:07.246Z,99990.25
2022-09-27T12:07:50.917Z,99991.06
2022-09-27T12:10:21.415Z,99983.16
2022-09-27T12:12:54.224Z,99988.38
2022-09-27T12:15:25.909Z,99985.31
2022-09-27T12:18:02.940Z,99989.84
2022-09-27T12:20:36.373Z,99985.13
2022-09-27T12:23:12.321Z,99985.13
2022-09-27T12:26:09.940Z,99984.16
2022-09-27T12:28:45.401Z,99976.09
2022-09-27T12:31:29.061Z,99990.91
2022-09-27T12:34:19.838Z,99982.72
2022-09-27T12:36:54.421Z,99984.56
2022-09-27T12:39:26.992Z,99985.25
2022-09-27T12:42:14.492Z,99979.75
2022-09-27T12:44:50.882Z,99989.63
2022-09-27T12:47:35.684Z,99993.88
2022-09-27T12:50:16.348Z,99996.56
2022-09-27T12:52:48.417Z,100000.09
2022-09-27T12:56:01.170Z,100001.75
2022-09-27T12:59:10.378Z,99998.38
2022-09-27T13:02:14.237Z,100002.78
2022-09-27T13:05:00.566Z,99995.53
2022-09-27T13:07:47.754Z,100013.22
2022-09-27T13:10:41.504Z,100007.84
2022-09-27T13:13:26.325Z,100004.16
2022-09-27T13:15:59.352Z,100008.56
2022-09-27T13:18:46.685Z,100001.47
2022-09-27T13:21:53.261Z,100005.69
2022-09-27T13:24:41.874Z,99997.78
2022-09-27T13:27:40.104Z,100005.00
2022-09-27T13:30:47.161Z,100006.84
2022-09-27T13:33:46.472Z,100012.53
2022-09-27T13:36:33.185Z,99997.41
2022-09-27T13:39:21.310Z,100004.75
2022-09-27T13:42:30.073Z,100007.91
2022-09-27T13:45:20.175Z,100005.06
2022-09-27T13:47:51.201Z,100012.28
2022-09-27T13:50:40.834Z,100011.44
2022-09-27T13:53:23.716Z,100006.75
2022-09-27T13:55:53.928Z,100011.44
2022-09-27T13:58:48.475Z,100011.44
2022-09-27T14:01:55.248Z,100008.88
2022-09-27T14:04:35.419Z,100020.19
2022-09-27T14:07:05.057Z,100017.69
2022-09-27T14:09:40.228Z,100009.44
2022-09-27T14:12:30.269Z,100019.22
2022-09-27T14:15:00.920Z,100019.91
2022-09-27T14:17:29.449Z,100021.59
2022-09-27T14:20:00.033Z,100017.91
2022-09-27T14:22:29.165Z,100021.16
2022-09-27T14:25:00.415Z,100031.75
2022-09-27T14:27:36.758Z,100018.00
2022-09-27T14:30:27.784Z,100027.91
2022-09-27T14:33:28.920Z,100035.13
2022-09-27T14:36:18.470Z,100029.91
2022-09-27T14:38:50.567Z,100027.91
2022-09-27T14:41:24.918Z,100027.78
2022-09-27T14:43:52.896Z,100028.75
2022-09-27T14:46:30.391Z,100028.47
2022-09-27T14:48:59.329Z,100046.59
2022-09-27T14:51:29.877Z,100028.59
2022-09-27T14:54:01.558Z,100028.75
2022-09-27T14:56:33.300Z,100033.84
2022-09-27T14:59:05.774Z,100032.13
2022-09-27T15:01:35.295Z,100033.97
2022-09-27T15:04:07.324Z,100045.59
2022-09-27T15:06:37.273Z,100050.13
2022-09-27T15:09:07.051Z,100051.81
2022-09-27T15:11:35.370Z,100043.91
2022-09-27T15:14:06.005Z,100047.59
2022-09-27T15:16:35.939Z,100057.38
2022-09-27T15:19:13.945Z,100062.59
2022-09-27T15:21:41.996Z,100053.81
2022-09-27T15:24:39.681Z,100052.00
2022-09-27T15:27:15.858Z,100062.88
2022-09-27T15:29:49.460Z,100065.56
2022-09-27T15:32:22.021Z,100056.25
2022-09-27T15:34:50.285Z,100061.50
2022-09-27T15:37:28.689Z,100060.47
2022-09-27T15:39:56.549Z,100063.16
2022-09-27T15:42:24.547Z,100062.34
2022-09-27T15:44:54.107Z,100055.94
2022-09-27T15:47:48.466Z,100060.66
2022-09-27T15:50:41.209Z,100061.22
2022-09-27T15:53:09.954Z,100068.31
2022-09-27T15:55:43.367Z,100057.28
2022-09-27T15:58:16.930Z,100064.09
2022-09-27T16:00:55.246Z,100067.91
2022-09-27T16:03:25.470Z,100078.81
2022-09-27T16:05:56.067Z,100020.34
2022-09-27T16:08:24.385Z,100070.22
2022-09-27T16:10:55.013Z,100060.97
2022-09-27T16:13:23.702Z,100058.63
2022-09-27T16:15:52.685Z,100084.94
2022-09-27T16:18:20.667Z,100082.41
2022-09-27T16:20:49.961Z,100077.13
2022-09-27T16:23:17.873Z,100082.66
2022-09-27T16:25:45.717Z,100088.19
2022-09-27T16:28:13.585Z,100084.78
2022-09-27T16:30:41.513Z,100085.78
2022-09-27T16:33:09.365Z,100084.09
2022-09-27T16:35:41.134Z,100085.91
2022-09-27T16:38:10.950Z,100079.84
2022-09-27T16:40:39.342Z,100091.75
2022-09-27T16:43:08.184Z,100095.44
2022-09-27T16:45:36.680Z,100100.66
2022-09-27T16:48:04.902Z,100097.97
2022-09-27T16:50:50.357Z,100102.38
2022-09-27T16:53:19.589Z,100099.69
2022-09-27T16:55:47.485Z,100097.81
2022-09-27T16:58:15.387Z,100099.69
2022-09-27T17:00:43.383Z,100104.31
2022-09-27T17:03:11.417Z,100108.56
2022-09-27T17:05:39.304Z,100113.13
2022-09-27T17:08:07.180Z,100109.72
2022-09-27T17:10:38.645Z,100119.47
2022-09-27T17:13:07.237Z,100122.44
2022-09-27T17:15:35.186Z,100115.38
2022-09-27T17:18:03.146Z,100117.22
2022-09-27T17:20:31.008Z,100122.91
2022-09-27T17:22:58.994Z,100126.56
2022-09-27T17:25:27.856Z,100126.56
2022-09-27T17:27:58.087Z,100123.19
2022-09-27T17:30:26.220Z,100126.16
2022-09-27T17:32:54.123Z,100116.69
2022-09-27T17:35:22.074Z,100119.38
2022-09-27T17:37:50.729Z,100123.75
2022-09-27T17:40:18.869Z,100096.22
2022-09-27T17:42:46.759Z,100124.03
2022-09-27T17:45:16.198Z,100116.81
2022-09-27T17:48:01.437Z,100107.81
2022-09-27T17:50:29.557Z,100115.44
2022-09-27T17:52:59.493Z,100123.50
2022-09-27T17:55:27.680Z,100128.88
2022-09-27T17:57:55.581Z,100121.94
2022-09-27T18:00:24.836Z,100127.59
2022-09-27T18:02:52.943Z,100130.28
2022-09-27T18:05:21.754Z,100131.41
2022-09-27T18:07:50.003Z,100133.25
2022-09-27T18:10:18.731Z,100135.94
2022-09-27T18:12:46.738Z,100140.47
2022-09-27T18:15:19.971Z,100130.72
2022-09-27T18:17:55.796Z,100144.28
2022-09-27T18:20:25.878Z,100148.97
2022-09-27T18:22:54.027Z,100149.13
2022-09-27T18:25:22.059Z,100158.44
2022-09-27T18:27:52.283Z,100150.53
2022-09-27T18:30:20.361Z,100150.53
2022-09-27T18:32:50.594Z,100146.28
2022-09-27T18:35:19.854Z,100152.91
2022-09-27T18:37:48.116Z,100159.84
2022-09-27T18:40:27.905Z,100150.50
2022-09-27T18:43:04.600Z,100162.81
2022-09-27T18:45:36.122Z,100156.63
2022-09-27T18:48:09.644Z,100155.88
2022-09-27T18:50:39.789Z,100159.69
2022-09-27T18:53:09.710Z,100128.16
2022-09-27T18:55:39.957Z,100158.88
2022-09-27T18:58:08.545Z,100126.75
2022-09-27T19:00:37.970Z,100158.31
2022-09-27T19:03:14.502Z,100155.78
2022-09-27T19:05:45.461Z,100159.53
2022-09-27T19:08:14.402Z,100165.91
2022-09-27T19:10:42.454Z,100167.72
2022-09-27T19:13:11.402Z,100168.84
2022-09-27T19:15:42.671Z,100172.53
2022-09-27T19:18:12.357Z,100170.84
2022-09-27T19:20:42.039Z,100178.91
2022-09-27T19:23:11.610Z,100171.81
2022-09-27T19:25:40.346Z,100173.53
2022-09-27T19:28:09.087Z,100178.19
2022-09-27T19:30:42.603Z,100168.28
2022-09-27T19:33:12.690Z,100174.22
2022-09-27T19:35:41.962Z,100180.47
2022-09-27T19:38:10.940Z,100179.44
2022-09-27T19:40:42.297Z,100176.75
2022-09-27T19:43:10.796Z,100176.75
2022-09-27T19:45:39.313Z,100173.94
2022-09-27T19:48:07.432Z,100179.31
2022-09-27T19:50:36.937Z,100176.63
2022-09-27T19:53:06.954Z,100182.00
2022-09-27T19:55:35.072Z,100174.81
2022-09-27T19:58:03.146Z,100173.09
2022-09-27T20:00:31.102Z,100167.72
2022-09-27T20:02:59.128Z,100175.78
2022-09-27T20:05:27.044Z,100178.47
2022-09-27T20:07:56.396Z,100174.81
2022-09-27T20:10:24.272Z,100174.94
2022-09-27T20:12:52.328Z,100175.78
2022-09-27T20:15:21.129Z,100188.34
2022-09-27T20:17:49.461Z,100178.75
2022-09-27T20:20:17.393Z,100178.75
2022-09-27T20:22:45.266Z,100125.13
2022-09-27T20:25:14.745Z,100184.28
2022-09-27T20:27:42.656Z,100188.78
2022-09-27T20:30:11.837Z,100183.13
2022-09-27T20:32:39.764Z,100184.00
2022-09-27T20:35:11.028Z,100176.22
2022-09-27T20:37:39.001Z,100192.75
2022-09-27T20:40:08.010Z,100179.59
2022-09-27T20:42:37.413Z,100184.69
2022-09-27T20:45:05.773Z,100190.06
2022-09-27T20:47:33.645Z,100188.34
2022-09-27T20:50:03.122Z,100189.38
2022-09-27T20:52:31.034Z,100184.00
2022-09-27T20:54:58.903Z,100195.56
2022-09-27T20:57:40.421Z,100187.66
2022-09-27T21:00:16.932Z,100193.03
2022-09-27T21:02:44.890Z,100189.50
2022-09-27T21:05:12.851Z,100195.00
2022-09-27T21:07:41.601Z,100195.28
2022-09-27T21:10:09.744Z,100205.88
2022-09-27T21:12:37.622Z,100197.00
2022-09-27T21:15:05.827Z,100203.19
2022-09-27T21:17:35.060Z,100197.81
2022-09-27T21:20:03.430Z,100206.59
2022-09-27T21:22:31.564Z,100212.69
2022-09-27T21:24:59.480Z,100206.19
2022-09-27T21:27:27.354Z,100200.81
2022-09-27T21:29:55.323Z,100202.25
2022-09-27T21:32:23.189Z,100201.28
2022-09-27T21:34:52.482Z,100200.16
2022-09-27T21:37:20.346Z,100203.53
2022-09-27T21:39:48.249Z,100201.69
2022-09-27T21:42:16.112Z,100201.69
2022-09-27T21:44:43.981Z,100202.56
2022-09-27T21:47:11.844Z,100216.69
2022-09-27T21:49:39.726Z,100203.25
2022-09-27T21:52:08.973Z,100208.47
2022-09-27T21:54:36.850Z,100212.16
2022-09-27T21:57:04.804Z,100205.50
2022-09-27T21:59:32.657Z,100213.84
2022-09-27T22:02:00.661Z,100210.19
2022-09-27T22:04:28.728Z,100211.91
2022-09-27T22:06:56.594Z,100210.03
2022-09-27T22:09:25.873Z,100219.81
2022-09-27T22:11:53.788Z,100213.56
2022-09-27T22:14:21.749Z,100209.06
2022-09-27T22:16:50.017Z,100183.00
2022-09-27T22:19:18.297Z,100209.22
2022-09-27T22:21:46.413Z,100202.81
2022-09-27T22:24:16.986Z,100201.84
2022-09-27T22:26:49.898Z,100209.06
2022-09-27T22:29:18.306Z,100211.03
2022-09-27T22:31:46.464Z,100200.56
2022-09-27T22:34:18.689Z,100205.09
2022-09-27T22:36:46.842Z,100207.06
2022-09-27T22:39:14.769Z,100203.69
2022-09-27T22:41:43.099Z,100208.19
2022-09-27T22:44:12.345Z,100197.59
2022-09-27T22:46:40.365Z,100204.09
2022-09-27T22:49:08.274Z,100198.81
2022-09-27T22:51:36.175Z,100202.38
2022-09-27T22:54:04.161Z,100198.13
2022-09-27T22:56:32.039Z,100197.28
2022-09-27T22:58:59.913Z,100207.31
2022-09-27T23:01:29.186Z,100192.16
2022-09-27T23:03:57.319Z,100201.34
2022-09-27T23:06:25.241Z,100201.25
2022-09-27T23:08:53.606Z,100200.50
2022-09-27T23:11:23.671Z,100207.75
2022-09-27T23:13:52.336Z,100208.72
2022-09-27T23:16:24.453Z,100195.44
2022-09-27T23:18:55.143Z,100205.31
2022-09-27T23:21:25.789Z,100203.34
2022-09-27T23:23:56.170Z,100209.56
2022-09-27T23:26:26.186Z,100211.13
2022-09-27T23:28:55.000Z,100211.97
2022-09-27T23:31:24.046Z,100207.44
2022-09-27T23:33:54.510Z,100210.84
2022-09-27T23:36:24.136Z,100211.81
2022-09-27T23:38:52.043Z,100205.06
2022-09-27T23:41:20.433Z,100201.94
2022-09-27T23:43:49.860Z,100208.16
2022-09-27T23:46:19.528Z,100201.94
2022-09-27T23:48:47.907Z,100202.78
2022-09-27T23:51:17.229Z,100201.09
2022-09-27T23:53:45.097Z,100203.78
2022-09-27T23:56:15.180Z,100195.72
2022-09-27T23:58:44.670Z,100193.03
